sensor_id;sensor_type;location;lat;lon;timestamp;P1;durP1;ratioP1;P2;durP2;ratioP2
68377;SDS011;55322;48.146;11.516;2023-07-22T00:01:05;9.70;;;3.45;;
68377;SDS011;55322;48.146;11.516;2023-07-22T00:03:30;10.27;;;3.90;;
68377;SDS011;55322;48.146;11.516;2023-07-22T00:06:02;8.37;;;3.40;;
68377;SDS011;55322;48.146;11.516;2023-07-22T00:08:29;7.07;;;3.30;;
68377;SDS011;55322;48.146;11.516;2023-07-22T00:10:54;11.50;;;3.20;;
68377;SDS011;55322;48.146;11.516;2023-07-22T00:13:19;8.63;;;4.00;;
68377;SDS011;55322;48.146;11.516;2023-07-22T00:15:45;9.63;;;4.20;;
68377;SDS011;55322;48.146;11.516;2023-07-22T00:18:10;10.27;;;4.10;;
68377;SDS011;55322;48.146;11.516;2023-07-22T00:20:35;7.80;;;3.33;;
68377;SDS011;55322;48.146;11.516;2023-07-22T00:23:01;7.40;;;3.70;;
68377;SDS011;55322;48.146;11.516;2023-07-22T00:25:26;9.57;;;3.87;;
68377;SDS011;55322;48.146;11.516;2023-07-22T00:27:52;9.10;;;3.80;;
68377;SDS011;55322;48.146;11.516;2023-07-22T00:30:17;8.03;;;4.07;;
68377;SDS011;55322;48.146;11.516;2023-07-22T00:32:43;8.30;;;4.10;;
68377;SDS011;55322;48.146;11.516;2023-07-22T00:35:08;9.97;;;4.53;;
68377;SDS011;55322;48.146;11.516;2023-07-22T00:37:36;10.45;;;4.43;;
68377;SDS011;55322;48.146;11.516;2023-07-22T00:40:02;9.90;;;4.37;;
68377;SDS011;55322;48.146;11.516;2023-07-22T00:42:36;9.70;;;4.80;;
68377;SDS011;55322;48.146;11.516;2023-07-22T00:45:02;9.93;;;4.67;;
68377;SDS011;55322;48.146;11.516;2023-07-22T00:47:28;11.13;;;4.50;;
68377;SDS011;55322;48.146;11.516;2023-07-22T00:49:53;9.50;;;4.33;;
68377;SDS011;55322;48.146;11.516;2023-07-22T00:52:19;9.13;;;4.50;;
68377;SDS011;55322;48.146;11.516;2023-07-22T00:54:45;9.33;;;4.40;;
68377;SDS011;55322;48.146;11.516;2023-07-22T00:57:10;7.80;;;4.03;;
68377;SDS011;55322;48.146;11.516;2023-07-22T00:59:36;10.32;;;4.05;;
68377;SDS011;55322;48.146;11.516;2023-07-22T01:02:03;9.35;;;4.50;;
68377;SDS011;55322;48.146;11.516;2023-07-22T01:04:29;8.57;;;4.27;;
68377;SDS011;55322;48.146;11.516;2023-07-22T01:06:58;8.30;;;3.90;;
68377;SDS011;55322;48.146;11.516;2023-07-22T01:09:24;8.67;;;3.83;;
68377;SDS011;55322;48.146;11.516;2023-07-22T01:11:49;10.27;;;4.13;;
68377;SDS011;55322;48.146;11.516;2023-07-22T01:14:14;9.53;;;4.50;;
68377;SDS011;55322;48.146;11.516;2023-07-22T01:16:40;7.80;;;4.30;;
68377;SDS011;55322;48.146;11.516;2023-07-22T01:19:05;7.83;;;4.20;;
68377;SDS011;55322;48.146;11.516;2023-07-22T01:21:31;8.48;;;4.32;;
68377;SDS011;55322;48.146;11.516;2023-07-22T01:23:57;8.20;;;4.50;;
68377;SDS011;55322;48.146;11.516;2023-07-22T01:26:23;9.40;;;4.70;;
68377;SDS011;55322;48.146;11.516;2023-07-22T01:28:48;8.55;;;4.25;;
68377;SDS011;55322;48.146;11.516;2023-07-22T01:31:14;8.23;;;4.07;;
68377;SDS011;55322;48.146;11.516;2023-07-22T01:33:39;9.53;;;4.20;;
68377;SDS011;55322;48.146;11.516;2023-07-22T01:36:04;10.60;;;4.70;;
68377;SDS011;55322;48.146;11.516;2023-07-22T01:38:30;8.80;;;4.50;;
68377;SDS011;55322;48.146;11.516;2023-07-22T01:40:56;8.30;;;4.22;;
68377;SDS011;55322;48.146;11.516;2023-07-22T01:43:21;9.70;;;4.17;;
68377;SDS011;55322;48.146;11.516;2023-07-22T01:45:47;9.13;;;4.30;;
68377;SDS011;55322;48.146;11.516;2023-07-22T01:48:12;8.98;;;4.07;;
68377;SDS011;55322;48.146;11.516;2023-07-22T01:50:38;9.27;;;4.00;;
68377;SDS011;55322;48.146;11.516;2023-07-22T01:53:03;7.70;;;4.03;;
68377;SDS011;55322;48.146;11.516;2023-07-22T01:55:30;9.18;;;4.28;;
68377;SDS011;55322;48.146;11.516;2023-07-22T01:57:57;8.95;;;4.70;;
68377;SDS011;55322;48.146;11.516;2023-07-22T02:00:22;7.83;;;4.03;;
68377;SDS011;55322;48.146;11.516;2023-07-22T02:02:48;9.15;;;4.30;;
68377;SDS011;55322;48.146;11.516;2023-07-22T02:05:13;13.43;;;5.03;;
68377;SDS011;55322;48.146;11.516;2023-07-22T02:07:38;8.60;;;4.63;;
68377;SDS011;55322;48.146;11.516;2023-07-22T02:10:04;10.30;;;4.40;;
68377;SDS011;55322;48.146;11.516;2023-07-22T02:12:30;7.80;;;3.97;;
68377;SDS011;55322;48.146;11.516;2023-07-22T02:14:55;8.43;;;4.30;;
68377;SDS011;55322;48.146;11.516;2023-07-22T02:17:21;8.80;;;4.80;;
68377;SDS011;55322;48.146;11.516;2023-07-22T02:19:46;10.77;;;4.97;;
68377;SDS011;55322;48.146;11.516;2023-07-22T02:22:12;8.57;;;4.90;;
68377;SDS011;55322;48.146;11.516;2023-07-22T02:24:38;8.40;;;4.15;;
68377;SDS011;55322;48.146;11.516;2023-07-22T02:27:03;10.20;;;4.70;;
68377;SDS011;55322;48.146;11.516;2023-07-22T02:29:29;8.25;;;4.15;;
68377;SDS011;55322;48.146;11.516;2023-07-22T02:31:56;8.53;;;4.30;;
68377;SDS011;55322;48.146;11.516;2023-07-22T02:34:22;10.02;;;4.60;;
68377;SDS011;55322;48.146;11.516;2023-07-22T02:36:48;8.27;;;4.15;;
68377;SDS011;55322;48.146;11.516;2023-07-22T02:39:13;9.90;;;4.30;;
68377;SDS011;55322;48.146;11.516;2023-07-22T02:41:39;8.93;;;4.23;;
68377;SDS011;55322;48.146;11.516;2023-07-22T02:44:04;8.60;;;4.72;;
68377;SDS011;55322;48.146;11.516;2023-07-22T02:46:30;9.17;;;4.83;;
68377;SDS011;55322;48.146;11.516;2023-07-22T02:48:56;11.27;;;4.47;;
68377;SDS011;55322;48.146;11.516;2023-07-22T02:51:21;8.93;;;4.50;;
68377;SDS011;55322;48.146;11.516;2023-07-22T02:53:47;7.90;;;4.33;;
68377;SDS011;55322;48.146;11.516;2023-07-22T02:56:12;8.43;;;4.20;;
68377;SDS011;55322;48.146;11.516;2023-07-22T02:58:38;8.32;;;4.25;;
68377;SDS011;55322;48.146;11.516;2023-07-22T03:01:04;11.30;;;4.33;;
68377;SDS011;55322;48.146;11.516;2023-07-22T03:03:30;8.80;;;4.30;;
68377;SDS011;55322;48.146;11.516;2023-07-22T03:05:58;8.85;;;4.40;;
68377;SDS011;55322;48.146;11.516;2023-07-22T03:08:24;10.43;;;4.63;;
68377;SDS011;55322;48.146;11.516;2023-07-22T03:10:50;8.37;;;4.20;;
68377;SDS011;55322;48.146;11.516;2023-07-22T03:13:15;8.07;;;4.30;;
68377;SDS011;55322;48.146;11.516;2023-07-22T03:15:41;9.70;;;4.53;;
68377;SDS011;55322;48.146;11.516;2023-07-22T03:18:06;7.87;;;4.27;;
68377;SDS011;55322;48.146;11.516;2023-07-22T03:20:34;8.45;;;4.47;;
68377;SDS011;55322;48.146;11.516;2023-07-22T03:23:01;10.57;;;4.53;;
68377;SDS011;55322;48.146;11.516;2023-07-22T03:25:26;10.03;;;4.00;;
68377;SDS011;55322;48.146;11.516;2023-07-22T03:27:52;9.80;;;4.00;;
68377;SDS011;55322;48.146;11.516;2023-07-22T03:30:18;8.23;;;4.60;;
68377;SDS011;55322;48.146;11.516;2023-07-22T03:32:44;10.13;;;5.20;;
68377;SDS011;55322;48.146;11.516;2023-07-22T03:35:12;8.25;;;4.50;;
68377;SDS011;55322;48.146;11.516;2023-07-22T03:37:38;10.27;;;4.50;;
68377;SDS011;55322;48.146;11.516;2023-07-22T03:40:04;9.27;;;4.50;;
68377;SDS011;55322;48.146;11.516;2023-07-22T03:42:48;8.15;;;4.40;;
68377;SDS011;55322;48.146;11.516;2023-07-22T03:45:14;9.57;;;4.65;;
68377;SDS011;55322;48.146;11.516;2023-07-22T03:47:40;11.43;;;4.60;;
68377;SDS011;55322;48.146;11.516;2023-07-22T03:50:06;8.57;;;4.40;;
68377;SDS011;55322;48.146;11.516;2023-07-22T03:52:32;7.53;;;4.22;;
68377;SDS011;55322;48.146;11.516;2023-07-22T03:54:57;8.00;;;4.10;;
68377;SDS011;55322;48.146;11.516;2023-07-22T03:57:26;9.55;;;4.43;;
68377;SDS011;55322;48.146;11.516;2023-07-22T03:59:55;8.67;;;4.50;;
68377;SDS011;55322;48.146;11.516;2023-07-22T04:02:21;8.63;;;4.13;;
68377;SDS011;55322;48.146;11.516;2023-07-22T04:04:46;9.68;;;4.68;;
68377;SDS011;55322;48.146;11.516;2023-07-22T04:07:12;9.00;;;4.57;;
68377;SDS011;55322;48.146;11.516;2023-07-22T04:09:37;8.30;;;4.33;;
68377;SDS011;55322;48.146;11.516;2023-07-22T04:12:03;9.88;;;4.50;;
68377;SDS011;55322;48.146;11.516;2023-07-22T04:14:29;8.83;;;4.60;;
68377;SDS011;55322;48.146;11.516;2023-07-22T04:16:54;8.40;;;4.65;;
68377;SDS011;55322;48.146;11.516;2023-07-22T04:19:19;8.63;;;5.00;;
68377;SDS011;55322;48.146;11.516;2023-07-22T04:21:45;9.37;;;5.17;;
68377;SDS011;55322;48.146;11.516;2023-07-22T04:24:10;10.50;;;5.07;;
68377;SDS011;55322;48.146;11.516;2023-07-22T04:26:36;9.57;;;5.17;;
68377;SDS011;55322;48.146;11.516;2023-07-22T04:29:01;8.67;;;4.63;;
68377;SDS011;55322;48.146;11.516;2023-07-22T04:31:26;11.00;;;5.20;;
68377;SDS011;55322;48.146;11.516;2023-07-22T04:33:52;10.85;;;4.90;;
68377;SDS011;55322;48.146;11.516;2023-07-22T04:36:17;11.47;;;5.20;;
68377;SDS011;55322;48.146;11.516;2023-07-22T04:38:42;11.40;;;5.10;;
68377;SDS011;55322;48.146;11.516;2023-07-22T04:41:08;10.30;;;5.17;;
68377;SDS011;55322;48.146;11.516;2023-07-22T04:43:33;10.13;;;4.80;;
68377;SDS011;55322;48.146;11.516;2023-07-22T04:45:58;9.57;;;4.93;;
68377;SDS011;55322;48.146;11.516;2023-07-22T04:48:24;10.27;;;4.97;;
68377;SDS011;55322;48.146;11.516;2023-07-22T04:50:49;9.60;;;4.83;;
68377;SDS011;55322;48.146;11.516;2023-07-22T04:53:15;9.77;;;4.37;;
68377;SDS011;55322;48.146;11.516;2023-07-22T04:55:42;11.50;;;4.50;;
68377;SDS011;55322;48.146;11.516;2023-07-22T04:58:07;10.00;;;4.97;;
68377;SDS011;55322;48.146;11.516;2023-07-22T05:00:34;10.95;;;4.28;;
68377;SDS011;55322;48.146;11.516;2023-07-22T05:02:59;8.37;;;4.23;;
68377;SDS011;55322;48.146;11.516;2023-07-22T05:05:25;9.37;;;3.93;;
68377;SDS011;55322;48.146;11.516;2023-07-22T05:07:50;8.82;;;3.80;;
68377;SDS011;55322;48.146;11.516;2023-07-22T05:10:17;8.02;;;3.63;;
68377;SDS011;55322;48.146;11.516;2023-07-22T05:12:44;8.23;;;3.30;;
68377;SDS011;55322;48.146;11.516;2023-07-22T05:15:10;7.22;;;3.40;;
68377;SDS011;55322;48.146;11.516;2023-07-22T05:17:36;11.05;;;3.60;;
68377;SDS011;55322;48.146;11.516;2023-07-22T05:20:02;7.13;;;3.27;;
68377;SDS011;55322;48.146;11.516;2023-07-22T05:22:29;7.43;;;2.85;;
68377;SDS011;55322;48.146;11.516;2023-07-22T05:24:54;11.00;;;3.80;;
68377;SDS011;55322;48.146;11.516;2023-07-22T05:27:20;7.75;;;3.28;;
68377;SDS011;55322;48.146;11.516;2023-07-22T05:29:46;8.17;;;2.93;;
68377;SDS011;55322;48.146;11.516;2023-07-22T05:32:11;6.53;;;2.60;;
68377;SDS011;55322;48.146;11.516;2023-07-22T05:34:37;8.47;;;2.90;;
68377;SDS011;55322;48.146;11.516;2023-07-22T05:37:02;6.60;;;3.00;;
68377;SDS011;55322;48.146;11.516;2023-07-22T05:39:28;8.83;;;2.93;;
68377;SDS011;55322;48.146;11.516;2023-07-22T05:41:53;6.80;;;2.80;;
68377;SDS011;55322;48.146;11.516;2023-07-22T05:44:19;7.53;;;3.07;;
68377;SDS011;55322;48.146;11.516;2023-07-22T05:46:44;7.97;;;3.10;;
68377;SDS011;55322;48.146;11.516;2023-07-22T05:49:09;7.73;;;3.30;;
68377;SDS011;55322;48.146;11.516;2023-07-22T05:51:37;8.40;;;2.58;;
68377;SDS011;55322;48.146;11.516;2023-07-22T05:54:03;8.43;;;2.53;;
68377;SDS011;55322;48.146;11.516;2023-07-22T05:56:28;9.27;;;2.70;;
68377;SDS011;55322;48.146;11.516;2023-07-22T05:58:54;7.57;;;3.03;;
68377;SDS011;55322;48.146;11.516;2023-07-22T06:01:19;6.80;;;3.10;;
68377;SDS011;55322;48.146;11.516;2023-07-22T06:03:45;7.90;;;3.00;;
68377;SDS011;55322;48.146;11.516;2023-07-22T06:06:10;6.47;;;2.70;;
68377;SDS011;55322;48.146;11.516;2023-07-22T06:08:35;7.50;;;2.70;;
68377;SDS011;55322;48.146;11.516;2023-07-22T06:11:01;6.47;;;2.40;;
68377;SDS011;55322;48.146;11.516;2023-07-22T06:13:26;7.40;;;2.43;;
68377;SDS011;55322;48.146;11.516;2023-07-22T06:15:52;7.50;;;2.27;;
68377;SDS011;55322;48.146;11.516;2023-07-22T06:18:17;6.97;;;2.57;;
68377;SDS011;55322;48.146;11.516;2023-07-22T06:20:43;7.60;;;2.40;;
68377;SDS011;55322;48.146;11.516;2023-07-22T06:23:09;6.88;;;2.28;;
68377;SDS011;55322;48.146;11.516;2023-07-22T06:25:34;7.83;;;2.43;;
68377;SDS011;55322;48.146;11.516;2023-07-22T06:27:59;5.90;;;2.07;;
68377;SDS011;55322;48.146;11.516;2023-07-22T06:30:25;7.37;;;2.40;;
68377;SDS011;55322;48.146;11.516;2023-07-22T06:32:50;5.60;;;2.30;;
68377;SDS011;55322;48.146;11.516;2023-07-22T06:35:15;6.30;;;2.30;;
68377;SDS011;55322;48.146;11.516;2023-07-22T06:37:41;6.47;;;2.30;;
68377;SDS011;55322;48.146;11.516;2023-07-22T06:40:06;6.47;;;2.20;;
68377;SDS011;55322;48.146;11.516;2023-07-22T06:42:32;5.75;;;1.95;;
68377;SDS011;55322;48.146;11.516;2023-07-22T06:44:58;5.50;;;1.90;;
68377;SDS011;55322;48.146;11.516;2023-07-22T06:47:23;5.73;;;1.93;;
68377;SDS011;55322;48.146;11.516;2023-07-22T06:49:48;6.03;;;1.83;;
68377;SDS011;55322;48.146;11.516;2023-07-22T06:52:15;5.97;;;1.90;;
68377;SDS011;55322;48.146;11.516;2023-07-22T06:54:41;5.80;;;1.77;;
68377;SDS011;55322;48.146;11.516;2023-07-22T06:57:07;5.28;;;1.80;;
68377;SDS011;55322;48.146;11.516;2023-07-22T06:59:32;5.50;;;1.70;;
68377;SDS011;55322;48.146;11.516;2023-07-22T07:01:58;5.57;;;1.60;;
68377;SDS011;55322;48.146;11.516;2023-07-22T07:04:23;5.70;;;1.63;;
68377;SDS011;55322;48.146;11.516;2023-07-22T07:06:49;5.70;;;1.63;;
68377;SDS011;55322;48.146;11.516;2023-07-22T07:09:15;6.15;;;1.80;;
68377;SDS011;55322;48.146;11.516;2023-07-22T07:11:40;7.17;;;2.00;;
68377;SDS011;55322;48.146;11.516;2023-07-22T07:14:06;7.10;;;1.50;;
68377;SDS011;55322;48.146;11.516;2023-07-22T07:16:31;5.67;;;1.53;;
68377;SDS011;55322;48.146;11.516;2023-07-22T07:18:58;6.18;;;1.48;;
68377;SDS011;55322;48.146;11.516;2023-07-22T07:21:25;5.45;;;1.67;;
68377;SDS011;55322;48.146;11.516;2023-07-22T07:23:51;6.90;;;1.50;;
68377;SDS011;55322;48.146;11.516;2023-07-22T07:26:17;7.25;;;1.65;;
68377;SDS011;55322;48.146;11.516;2023-07-22T07:28:44;5.10;;;1.20;;
68377;SDS011;55322;48.146;11.516;2023-07-22T07:31:09;5.13;;;1.55;;
68377;SDS011;55322;48.146;11.516;2023-07-22T07:33:35;6.70;;;1.50;;
68377;SDS011;55322;48.146;11.516;2023-07-22T07:36:01;6.25;;;1.55;;
68377;SDS011;55322;48.146;11.516;2023-07-22T07:38:28;4.85;;;1.40;;
68377;SDS011;55322;48.146;11.516;2023-07-22T07:40:57;5.03;;;1.43;;
68377;SDS011;55322;48.146;11.516;2023-07-22T07:43:28;5.60;;;1.30;;
68377;SDS011;55322;48.146;11.516;2023-07-22T07:48:47;5.60;;;1.50;;
68377;SDS011;55322;48.146;11.516;2023-07-22T07:51:23;5.22;;;1.38;;
68377;SDS011;55322;48.146;11.516;2023-07-22T07:53:51;5.18;;;1.50;;
68377;SDS011;55322;48.146;11.516;2023-07-22T07:56:17;5.60;;;1.63;;
68377;SDS011;55322;48.146;11.516;2023-07-22T07:58:43;5.00;;;1.50;;
68377;SDS011;55322;48.146;11.516;2023-07-22T08:01:09;9.85;;;2.22;;
68377;SDS011;55322;48.146;11.516;2023-07-22T08:03:35;5.03;;;1.67;;
68377;SDS011;55322;48.146;11.516;2023-07-22T08:06:01;6.72;;;1.90;;
68377;SDS011;55322;48.146;11.516;2023-07-22T08:08:27;6.45;;;1.60;;
68377;SDS011;55322;48.146;11.516;2023-07-22T08:11:03;6.47;;;1.93;;
68377;SDS011;55322;48.146;11.516;2023-07-22T08:16:10;5.10;;;1.50;;
68377;SDS011;55322;48.146;11.516;2023-07-22T08:18:37;6.30;;;1.50;;
68377;SDS011;55322;48.146;11.516;2023-07-22T08:21:03;5.63;;;1.63;;
68377;SDS011;55322;48.146;11.516;2023-07-22T08:23:31;7.27;;;1.80;;
68377;SDS011;55322;48.146;11.516;2023-07-22T08:25:57;5.40;;;2.00;;
68377;SDS011;55322;48.146;11.516;2023-07-22T08:28:22;6.00;;;1.50;;
68377;SDS011;55322;48.146;11.516;2023-07-22T08:30:48;5.77;;;1.53;;
68377;SDS011;55322;48.146;11.516;2023-07-22T08:33:14;8.40;;;1.52;;
68377;SDS011;55322;48.146;11.516;2023-07-22T08:35:41;5.82;;;1.65;;
68377;SDS011;55322;48.146;11.516;2023-07-22T08:38:06;6.20;;;1.67;;
68377;SDS011;55322;48.146;11.516;2023-07-22T08:40:34;7.43;;;1.58;;
68377;SDS011;55322;48.146;11.516;2023-07-22T08:43:04;4.73;;;1.30;;
68377;SDS011;55322;48.146;11.516;2023-07-22T08:45:31;5.45;;;1.17;;
68377;SDS011;55322;48.146;11.516;2023-07-22T08:47:58;6.55;;;1.40;;
68377;SDS011;55322;48.146;11.516;2023-07-22T08:50:24;7.00;;;1.30;;
68377;SDS011;55322;48.146;11.516;2023-07-22T08:52:54;4.88;;;1.23;;
68377;SDS011;55322;48.146;11.516;2023-07-22T08:55:20;5.47;;;1.30;;
68377;SDS011;55322;48.146;11.516;2023-07-22T08:57:46;4.80;;;1.35;;
68377;SDS011;55322;48.146;11.516;2023-07-22T09:00:14;5.40;;;1.30;;
68377;SDS011;55322;48.146;11.516;2023-07-22T09:02:40;4.70;;;1.37;;
68377;SDS011;55322;48.146;11.516;2023-07-22T09:05:06;5.90;;;1.33;;
68377;SDS011;55322;48.146;11.516;2023-07-22T09:07:32;7.88;;;1.30;;
68377;SDS011;55322;48.146;11.516;2023-07-22T09:09:58;4.40;;;1.10;;
68377;SDS011;55322;48.146;11.516;2023-07-22T09:12:25;6.20;;;1.10;;
68377;SDS011;55322;48.146;11.516;2023-07-22T09:14:50;6.33;;;1.43;;
68377;SDS011;55322;48.146;11.516;2023-07-22T09:17:17;7.00;;;1.17;;
68377;SDS011;55322;48.146;11.516;2023-07-22T09:19:43;5.38;;;1.63;;
68377;SDS011;55322;48.146;11.516;2023-07-22T09:22:08;5.10;;;1.30;;
68377;SDS011;55322;48.146;11.516;2023-07-22T09:24:33;4.63;;;1.03;;
68377;SDS011;55322;48.146;11.516;2023-07-22T09:26:58;8.33;;;1.10;;
68377;SDS011;55322;48.146;11.516;2023-07-22T09:29:34;4.40;;;1.10;;
68377;SDS011;55322;48.146;11.516;2023-07-22T09:32:01;4.97;;;1.17;;
68377;SDS011;55322;48.146;11.516;2023-07-22T09:34:28;5.32;;;1.23;;
68377;SDS011;55322;48.146;11.516;2023-07-22T09:36:55;5.20;;;1.15;;
68377;SDS011;55322;48.146;11.516;2023-07-22T09:39:21;4.87;;;1.20;;
68377;SDS011;55322;48.146;11.516;2023-07-22T09:41:48;4.72;;;1.30;;
68377;SDS011;55322;48.146;11.516;2023-07-22T09:44:13;4.78;;;1.27;;
68377;SDS011;55322;48.146;11.516;2023-07-22T09:46:39;7.03;;;1.20;;
68377;SDS011;55322;48.146;11.516;2023-07-22T09:49:06;5.07;;;1.25;;
68377;SDS011;55322;48.146;11.516;2023-07-22T09:51:36;4.20;;;1.00;;
68377;SDS011;55322;48.146;11.516;2023-07-22T09:54:03;4.18;;;1.02;;
68377;SDS011;55322;48.146;11.516;2023-07-22T09:56:29;6.47;;;1.43;;
68377;SDS011;55322;48.146;11.516;2023-07-22T09:58:56;5.90;;;1.10;;
68377;SDS011;55322;48.146;11.516;2023-07-22T10:01:24;6.93;;;1.50;;
68377;SDS011;55322;48.146;11.516;2023-07-22T10:03:54;4.65;;;1.30;;
68377;SDS011;55322;48.146;11.516;2023-07-22T10:06:23;4.95;;;1.40;;
68377;SDS011;55322;48.146;11.516;2023-07-22T10:08:51;4.30;;;1.10;;
68377;SDS011;55322;48.146;11.516;2023-07-22T10:11:17;7.32;;;1.20;;
68377;SDS011;55322;48.146;11.516;2023-07-22T10:13:43;4.88;;;1.00;;
68377;SDS011;55322;48.146;11.516;2023-07-22T10:16:10;6.68;;;1.30;;
68377;SDS011;55322;48.146;11.516;2023-07-22T10:18:35;4.77;;;1.20;;
68377;SDS011;55322;48.146;11.516;2023-07-22T10:21:02;6.65;;;1.40;;
68377;SDS011;55322;48.146;11.516;2023-07-22T10:23:28;5.50;;;1.20;;
68377;SDS011;55322;48.146;11.516;2023-07-22T10:25:54;4.30;;;1.00;;
68377;SDS011;55322;48.146;11.516;2023-07-22T10:28:22;4.68;;;1.10;;
68377;SDS011;55322;48.146;11.516;2023-07-22T10:30:48;4.22;;;1.00;;
68377;SDS011;55322;48.146;11.516;2023-07-22T10:33:14;8.33;;;1.20;;
68377;SDS011;55322;48.146;11.516;2023-07-22T10:35:40;5.87;;;1.30;;
68377;SDS011;55322;48.146;11.516;2023-07-22T10:38:13;4.63;;;1.20;;
68377;SDS011;55322;48.146;11.516;2023-07-22T10:40:50;5.25;;;1.30;;
68377;SDS011;55322;48.146;11.516;2023-07-22T10:43:17;5.10;;;1.15;;
68377;SDS011;55322;48.146;11.516;2023-07-22T10:45:55;6.03;;;1.00;;
68377;SDS011;55322;48.146;11.516;2023-07-22T10:48:23;5.07;;;1.40;;
68377;SDS011;55322;48.146;11.516;2023-07-22T10:50:57;4.28;;;1.05;;
68377;SDS011;55322;48.146;11.516;2023-07-22T10:53:29;4.30;;;1.20;;
68377;SDS011;55322;48.146;11.516;2023-07-22T11:06:39;7.40;;;1.60;;
68377;SDS011;55322;48.146;11.516;2023-07-22T11:11:54;5.15;;;1.38;;
68377;SDS011;55322;48.146;11.516;2023-07-22T11:14:22;4.50;;;1.13;;
68377;SDS011;55322;48.146;11.516;2023-07-22T11:16:48;6.95;;;1.38;;
68377;SDS011;55322;48.146;11.516;2023-07-22T11:19:14;5.50;;;1.45;;
68377;SDS011;55322;48.146;11.516;2023-07-22T11:21:40;4.80;;;1.47;;
68377;SDS011;55322;48.146;11.516;2023-07-22T11:24:06;4.60;;;1.10;;
68377;SDS011;55322;48.146;11.516;2023-07-22T11:26:32;6.97;;;1.40;;
68377;SDS011;55322;48.146;11.516;2023-07-22T11:29:02;4.47;;;1.30;;
68377;SDS011;55322;48.146;11.516;2023-07-22T11:31:35;5.15;;;1.42;;
68377;SDS011;55322;48.146;11.516;2023-07-22T11:34:05;5.85;;;1.40;;
68377;SDS011;55322;48.146;11.516;2023-07-22T11:36:31;5.05;;;1.20;;
68377;SDS011;55322;48.146;11.516;2023-07-22T11:39:03;5.38;;;1.30;;
68377;SDS011;55322;48.146;11.516;2023-07-22T11:41:39;5.00;;;1.40;;
68377;SDS011;55322;48.146;11.516;2023-07-22T11:44:10;6.13;;;1.60;;
68377;SDS011;55322;48.146;11.516;2023-07-22T11:46:46;5.22;;;1.13;;
68377;SDS011;55322;48.146;11.516;2023-07-22T11:49:12;4.50;;;1.15;;
68377;SDS011;55322;48.146;11.516;2023-07-22T11:51:38;4.97;;;1.47;;
68377;SDS011;55322;48.146;11.516;2023-07-22T11:54:08;5.55;;;1.40;;
68377;SDS011;55322;48.146;11.516;2023-07-22T11:56:33;6.83;;;2.53;;
68377;SDS011;55322;48.146;11.516;2023-07-22T11:58:59;7.68;;;3.33;;
68377;SDS011;55322;48.146;11.516;2023-07-22T12:01:24;6.60;;;2.47;;
68377;SDS011;55322;48.146;11.516;2023-07-22T12:03:57;4.97;;;1.60;;
68377;SDS011;55322;48.146;11.516;2023-07-22T12:06:24;4.57;;;1.40;;
68377;SDS011;55322;48.146;11.516;2023-07-22T12:08:51;5.43;;;1.98;;
68377;SDS011;55322;48.146;11.516;2023-07-22T12:11:20;5.03;;;1.50;;
68377;SDS011;55322;48.146;11.516;2023-07-22T12:13:49;6.13;;;1.50;;
68377;SDS011;55322;48.146;11.516;2023-07-22T12:16:31;5.88;;;1.90;;
68377;SDS011;55322;48.146;11.516;2023-07-22T12:19:00;5.17;;;1.67;;
68377;SDS011;55322;48.146;11.516;2023-07-22T12:21:26;6.35;;;1.60;;
68377;SDS011;55322;48.146;11.516;2023-07-22T12:23:52;6.25;;;1.90;;
68377;SDS011;55322;48.146;11.516;2023-07-22T12:26:18;4.95;;;1.40;;
68377;SDS011;55322;48.146;11.516;2023-07-22T12:28:43;5.13;;;1.50;;
68377;SDS011;55322;48.146;11.516;2023-07-22T12:31:08;8.67;;;3.47;;
68377;SDS011;55322;48.146;11.516;2023-07-22T12:33:34;5.40;;;1.77;;
68377;SDS011;55322;48.146;11.516;2023-07-22T12:35:59;7.30;;;1.85;;
68377;SDS011;55322;48.146;11.516;2023-07-22T12:38:25;5.67;;;1.30;;
68377;SDS011;55322;48.146;11.516;2023-07-22T12:40:50;6.83;;;3.10;;
68377;SDS011;55322;48.146;11.516;2023-07-22T12:43:15;6.57;;;2.27;;
68377;SDS011;55322;48.146;11.516;2023-07-22T12:45:41;6.87;;;1.43;;
68377;SDS011;55322;48.146;11.516;2023-07-22T12:48:06;4.67;;;1.43;;
68377;SDS011;55322;48.146;11.516;2023-07-22T12:50:32;5.60;;;1.30;;
68377;SDS011;55322;48.146;11.516;2023-07-22T12:53:01;4.80;;;1.40;;
68377;SDS011;55322;48.146;11.516;2023-07-22T12:55:27;4.97;;;1.48;;
68377;SDS011;55322;48.146;11.516;2023-07-22T12:57:53;4.40;;;1.10;;
68377;SDS011;55322;48.146;11.516;2023-07-22T13:00:18;5.17;;;1.50;;
68377;SDS011;55322;48.146;11.516;2023-07-22T13:02:44;4.43;;;1.30;;
68377;SDS011;55322;48.146;11.516;2023-07-22T13:05:09;4.77;;;1.53;;
68377;SDS011;55322;48.146;11.516;2023-07-22T13:07:34;4.83;;;1.20;;
68377;SDS011;55322;48.146;11.516;2023-07-22T13:10:06;4.70;;;1.33;;
68377;SDS011;55322;48.146;11.516;2023-07-22T13:12:35;5.60;;;1.60;;
68377;SDS011;55322;48.146;11.516;2023-07-22T13:15:01;4.53;;;1.40;;
68377;SDS011;55322;48.146;11.516;2023-07-22T13:17:27;5.75;;;1.58;;
68377;SDS011;55322;48.146;11.516;2023-07-22T13:19:52;6.30;;;1.50;;
68377;SDS011;55322;48.146;11.516;2023-07-22T13:22:18;5.20;;;1.57;;
68377;SDS011;55322;48.146;11.516;2023-07-22T13:24:43;5.03;;;1.50;;
68377;SDS011;55322;48.146;11.516;2023-07-22T13:27:08;4.90;;;1.40;;
68377;SDS011;55322;48.146;11.516;2023-07-22T13:29:34;5.73;;;1.63;;
68377;SDS011;55322;48.146;11.516;2023-07-22T13:31:59;5.10;;;1.40;;
68377;SDS011;55322;48.146;11.516;2023-07-22T13:34:24;8.52;;;3.35;;
68377;SDS011;55322;48.146;11.516;2023-07-22T13:36:50;15.60;;;10.73;;
68377;SDS011;55322;48.146;11.516;2023-07-22T13:39:16;6.78;;;2.10;;
68377;SDS011;55322;48.146;11.516;2023-07-22T13:41:41;5.30;;;2.10;;
68377;SDS011;55322;48.146;11.516;2023-07-22T13:44:06;6.53;;;1.70;;
68377;SDS011;55322;48.146;11.516;2023-07-22T13:46:32;4.47;;;1.23;;
68377;SDS011;55322;48.146;11.516;2023-07-22T13:48:57;5.27;;;1.30;;
68377;SDS011;55322;48.146;11.516;2023-07-22T13:51:22;7.73;;;1.30;;
68377;SDS011;55322;48.146;11.516;2023-07-22T13:53:48;4.80;;;1.27;;
68377;SDS011;55322;48.146;11.516;2023-07-22T13:56:13;5.37;;;1.40;;
68377;SDS011;55322;48.146;11.516;2023-07-22T13:58:38;5.40;;;1.60;;
68377;SDS011;55322;48.146;11.516;2023-07-22T14:01:04;5.03;;;1.60;;
68377;SDS011;55322;48.146;11.516;2023-07-22T14:03:29;7.40;;;2.30;;
68377;SDS011;55322;48.146;11.516;2023-07-22T14:05:54;5.00;;;1.23;;
68377;SDS011;55322;48.146;11.516;2023-07-22T14:08:20;5.85;;;1.67;;
68377;SDS011;55322;48.146;11.516;2023-07-22T14:10:46;5.17;;;1.50;;
68377;SDS011;55322;48.146;11.516;2023-07-22T14:13:11;6.70;;;1.60;;
68377;SDS011;55322;48.146;11.516;2023-07-22T14:15:38;14.23;;;6.00;;
68377;SDS011;55322;48.146;11.516;2023-07-22T14:18:03;19.00;;;10.43;;
68377;SDS011;55322;48.146;11.516;2023-07-22T14:20:29;17.00;;;10.13;;
68377;SDS011;55322;48.146;11.516;2023-07-22T14:22:55;6.27;;;2.10;;
68377;SDS011;55322;48.146;11.516;2023-07-22T14:25:21;11.57;;;6.47;;
68377;SDS011;55322;48.146;11.516;2023-07-22T14:27:46;20.13;;;13.93;;
68377;SDS011;55322;48.146;11.516;2023-07-22T14:30:12;6.53;;;2.77;;
68377;SDS011;55322;48.146;11.516;2023-07-22T14:32:37;6.10;;;1.87;;
68377;SDS011;55322;48.146;11.516;2023-07-22T14:35:03;24.17;;;14.87;;
68377;SDS011;55322;48.146;11.516;2023-07-22T14:37:29;13.02;;;8.73;;
68377;SDS011;55322;48.146;11.516;2023-07-22T14:39:54;7.43;;;3.30;;
68377;SDS011;55322;48.146;11.516;2023-07-22T14:42:20;5.20;;;1.70;;
68377;SDS011;55322;48.146;11.516;2023-07-22T14:44:45;6.87;;;1.73;;
68377;SDS011;55322;48.146;11.516;2023-07-22T14:47:10;10.07;;;3.05;;